sensor_id;sensor_type;location;lat;lon;timestamp;pressure;altitude;pressure_sealevel;temperature;humidity
29121;BME280;16191;49.548;8.658;2023-04-23T00:01:43;99750.34;;;13.26;100.00
29121;BME280;16191;49.548;8.658;2023-04-23T00:04:11;99748.47;;;13.28;100.00
29121;BME280;16191;49.548;8.658;2023-04-23T00:06:41;99757.31;;;13.12;100.00
29121;BME280;16191;49.548;8.658;2023-04-23T00:09:08;99759.50;;;13.19;100.00
29121;BME280;16191;49.548;8.658;2023-04-23T00:11:35;99756.78;;;13.21;100.00
29121;BME280;16191;49.548;8.658;2023-04-23T00:14:02;99761.84;;;12.94;100.00
29121;BME280;16191;49.548;8.658;2023-04-23T00:16:29;99767.66;;;12.99;100.00
29121;BME280;16191;49.548;8.658;2023-04-23T00:18:55;99761.97;;;13.07;100.00
29121;BME280;16191;49.548;8.658;2023-04-23T00:21:22;99769.03;;;12.90;100.00
29121;BME280;16191;49.548;8.658;2023-04-23T00:23:48;99770.94;;;13.02;100.00
29121;BME280;16191;49.548;8.658;2023-04-23T00:26:15;99765.00;;;12.85;100.00
29121;BME280;16191;49.548;8.658;2023-04-23T00:28:43;99768.03;;;12.93;100.00
29121;BME280;16191;49.548;8.658;2023-04-23T00:31:10;99771.06;;;12.85;100.00
29121;BME280;16191;49.548;8.658;2023-04-23T00:33:37;99771.25;;;12.82;100.00
29121;BME280;16191;49.548;8.658;2023-04-23T00:36:05;99776.72;;;12.78;100.00
29121;BME280;16191;49.548;8.658;2023-04-23T00:38:32;99776.66;;;12.79;100.00
29121;BME280;16191;49.548;8.658;2023-04-23T00:40:58;99780.47;;;12.74;100.00
29121;BME280;16191;49.548;8.658;2023-04-23T00:43:25;99775.59;;;12.67;100.00
29121;BME280;16191;49.548;8.658;2023-04-23T00:45:52;99786.66;;;12.73;100.00
29121;BME280;16191;49.548;8.658;2023-04-23T00:48:19;99788.34;;;12.74;100.00
29121;BME280;16191;49.548;8.658;2023-04-23T00:50:46;99791.25;;;12.53;100.00
29121;BME280;16191;49.548;8.658;2023-04-23T00:53:13;99792.66;;;12.59;100.00
29121;BME280;16191;49.548;8.658;2023-04-23T00:55:39;99783.63;;;12.64;100.00
29121;BME280;16191;49.548;8.658;2023-04-23T00:58:06;99781.50;;;12.71;100.00
29121;BME280;16191;49.548;8.658;2023-04-23T01:00:35;99784.47;;;12.65;100.00
29121;BME280;16191;49.548;8.658;2023-04-23T01:03:07;99794.16;;;12.63;100.00
29121;BME280;16191;49.548;8.658;2023-04-23T01:05:35;99797.78;;;12.60;100.00
29121;BME280;16191;49.548;8.658;2023-04-23T01:08:02;99793.66;;;12.56;100.00
29121;BME280;16191;49.548;8.658;2023-04-23T01:10:30;99802.34;;;12.57;100.00
29121;BME280;16191;49.548;8.658;2023-04-23T01:12:58;99793.25;;;12.48;100.00
29121;BME280;16191;49.548;8.658;2023-04-23T01:15:25;99791.06;;;12.41;100.00
29121;BME280;16191;49.548;8.658;2023-04-23T01:17:51;99795.53;;;12.39;100.00
29121;BME280;16191;49.548;8.658;2023-04-23T01:20:19;99793.59;;;12.42;100.00
29121;BME280;16191;49.548;8.658;2023-04-23T01:22:45;99795.97;;;12.31;100.00
29121;BME280;16191;49.548;8.658;2023-04-23T01:25:12;99794.69;;;12.38;100.00
29121;BME280;16191;49.548;8.658;2023-04-23T01:27:39;99806.69;;;12.42;100.00
29121;BME280;16191;49.548;8.658;2023-04-23T01:30:07;99800.84;;;12.37;100.00
29121;BME280;16191;49.548;8.658;2023-04-23T01:32:34;99807.69;;;12.40;100.00
29121;BME280;16191;49.548;8.658;2023-04-23T01:35:01;99814.00;;;12.35;100.00
29121;BME280;16191;49.548;8.658;2023-04-23T01:37:28;99810.22;;;12.41;100.00
29121;BME280;16191;49.548;8.658;2023-04-23T01:39:55;99815.44;;;12.41;100.00
29121;BME280;16191;49.548;8.658;2023-04-23T01:42:22;99808.91;;;12.34;100.00
29121;BME280;16191;49.548;8.658;2023-04-23T01:44:52;99818.25;;;12.38;100.00
29121;BME280;16191;49.548;8.658;2023-04-23T01:47:39;99803.91;;;12.29;100.00
29121;BME280;16191;49.548;8.658;2023-04-23T01:50:27;99807.09;;;12.34;100.00
29121;BME280;16191;49.548;8.658;2023-04-23T01:53:15;99819.44;;;12.32;100.00
29121;BME280;16191;49.548;8.658;2023-04-23T01:56:02;99818.75;;;12.29;100.00
29121;BME280;16191;49.548;8.658;2023-04-23T01:58:49;99818.91;;;12.26;100.00
29121;BME280;16191;49.548;8.658;2023-04-23T02:01:41;99825.16;;;12.23;100.00
29121;BME280;16191;49.548;8.658;2023-04-23T02:04:10;99832.00;;;12.26;100.00
29121;BME280;16191;49.548;8.658;2023-04-23T02:06:37;99829.38;;;12.26;100.00
29121;BME280;16191;49.548;8.658;2023-04-23T02:09:04;99829.63;;;12.21;100.00
29121;BME280;16191;49.548;8.658;2023-04-23T02:11:31;99838.56;;;12.17;100.00
29121;BME280;16191;49.548;8.658;2023-04-23T02:13:58;99835.69;;;12.22;100.00
29121;BME280;16191;49.548;8.658;2023-04-23T02:16:25;99840.16;;;12.20;100.00
29121;BME280;16191;49.548;8.658;2023-04-23T02:18:54;99834.25;;;12.16;100.00
29121;BME280;16191;49.548;8.658;2023-04-23T02:21:22;99836.78;;;12.18;100.00
29121;BME280;16191;49.548;8.658;2023-04-23T02:23:50;99840.50;;;12.14;100.00
29121;BME280;16191;49.548;8.658;2023-04-23T02:26:16;99837.22;;;12.10;100.00
29121;BME280;16191;49.548;8.658;2023-04-23T02:28:45;99839.16;;;12.07;100.00
29121;BME280;16191;49.548;8.658;2023-04-23T02:31:11;99837.31;;;12.09;100.00
29121;BME280;16191;49.548;8.658;2023-04-23T02:33:40;99840.69;;;12.11;100.00
29121;BME280;16191;49.548;8.658;2023-04-23T02:36:08;99842.94;;;12.17;100.00
29121;BME280;16191;49.548;8.658;2023-04-23T02:38:37;99838.47;;;12.19;100.00
29121;BME280;16191;49.548;8.658;2023-04-23T02:41:07;99838.72;;;12.14;100.00
29121;BME280;16191;49.548;8.658;2023-04-23T02:43:34;99847.50;;;12.13;100.00
29121;BME280;16191;49.548;8.658;2023-04-23T02:46:01;99843.22;;;12.12;100.00
29121;BME280;16191;49.548;8.658;2023-04-23T02:48:35;99842.53;;;12.09;100.00
29121;BME280;16191;49.548;8.658;2023-04-23T02:51:02;99846.06;;;12.08;100.00
29121;BME280;16191;49.548;8.658;2023-04-23T02:53:28;99847.75;;;12.09;100.00
29121;BME280;16191;49.548;8.658;2023-04-23T02:55:55;99846.84;;;12.10;100.00
29121;BME280;16191;49.548;8.658;2023-04-23T02:58:22;99832.91;;;12.09;100.00
29121;BME280;16191;49.548;8.658;2023-04-23T03:00:51;99836.28;;;12.11;100.00
29121;BME280;16191;49.548;8.658;2023-04-23T03:03:18;99836.63;;;12.05;100.00
29121;BME280;16191;49.548;8.658;2023-04-23T03:05:45;99840.59;;;12.12;100.00
29121;BME280;16191;49.548;8.658;2023-04-23T03:08:12;99836.63;;;12.05;100.00
29121;BME280;16191;49.548;8.658;2023-04-23T03:10:38;99832.06;;;12.09;100.00
29121;BME280;16191;49.548;8.658;2023-04-23T03:13:05;99830.88;;;12.14;100.00
29121;BME280;16191;49.548;8.658;2023-04-23T03:15:32;99823.31;;;12.10;100.00
29121;BME280;16191;49.548;8.658;2023-04-23T03:17:58;99828.53;;;12.10;100.00
29121;BME280;16191;49.548;8.658;2023-04-23T03:20:26;99828.59;;;12.08;100.00
29121;BME280;16191;49.548;8.658;2023-04-23T03:22:53;99831.31;;;12.07;100.00
29121;BME280;16191;49.548;8.658;2023-04-23T03:25:20;99824.78;;;11.98;100.00
29121;BME280;16191;49.548;8.658;2023-04-23T03:27:49;99828.16;;;12.00;100.00
29121;BME280;16191;49.548;8.658;2023-04-23T03:30:15;99834.09;;;12.04;100.00
29121;BME280;16191;49.548;8.658;2023-04-23T03:32:42;99833.41;;;12.00;100.00
29121;BME280;16191;49.548;8.658;2023-04-23T03:35:10;99825.56;;;12.00;100.00
29121;BME280;16191;49.548;8.658;2023-04-23T03:37:41;99830.78;;;12.00;100.00
29121;BME280;16191;49.548;8.658;2023-04-23T03:40:09;99829.16;;;11.97;100.00
29121;BME280;16191;49.548;8.658;2023-04-23T03:42:38;99835.47;;;11.93;100.00
29121;BME280;16191;49.548;8.658;2023-04-23T03:45:06;99831.69;;;11.99;100.00
29121;BME280;16191;49.548;8.658;2023-04-23T03:47:32;99841.16;;;12.01;100.00
29121;BME280;16191;49.548;8.658;2023-04-23T03:49:59;99841.47;;;11.95;100.00
29121;BME280;16191;49.548;8.658;2023-04-23T03:52:25;99834.63;;;11.93;100.00
29121;BME280;16191;49.548;8.658;2023-04-23T03:54:52;99837.25;;;11.93;100.00
29121;BME280;16191;49.548;8.658;2023-04-23T03:57:25;99838.94;;;11.94;100.00
29121;BME280;16191;49.548;8.658;2023-04-23T04:00:04;99847.06;;;11.89;100.00
29121;BME280;16191;49.548;8.658;2023-04-23T04:02:38;99849.66;;;11.89;100.00
29121;BME280;16191;49.548;8.658;2023-04-23T04:05:06;99841.72;;;11.91;100.00
29121;BME280;16191;49.548;8.658;2023-04-23T04:07:34;99847.91;;;11.90;100.00
29121;BME280;16191;49.548;8.658;2023-04-23T04:10:04;99842.22;;;11.82;100.00
29121;BME280;16191;49.548;8.658;2023-04-23T04:12:31;99842.13;;;11.83;100.00
29121;BME280;16191;49.548;8.658;2023-04-23T04:14:57;99836.91;;;11.83;100.00
29121;BME280;16191;49.548;8.658;2023-04-23T04:17:24;99844.81;;;11.82;100.00
29121;BME280;16191;49.548;8.658;2023-04-23T04:19:51;99844.97;;;11.79;100.00
29121;BME280;16191;49.548;8.658;2023-04-23T04:22:18;99850.66;;;11.87;100.00
29121;BME280;16191;49.548;8.658;2023-04-23T04:24:44;99854.19;;;11.86;100.00
29121;BME280;16191;49.548;8.658;2023-04-23T04:27:13;99861.50;;;11.79;100.00
29121;BME280;16191;49.548;8.658;2023-04-23T04:29:40;99856.28;;;11.79;100.00
29121;BME280;16191;49.548;8.658;2023-04-23T04:32:08;99860.28;;;11.69;100.00
29121;BME280;16191;49.548;8.658;2023-04-23T04:34:34;99859.50;;;11.67;100.00
29121;BME280;16191;49.548;8.658;2023-04-23T04:37:04;99864.13;;;11.62;100.00
29121;BME280;16191;49.548;8.658;2023-04-23T04:39:31;99856.13;;;11.65;100.00
29121;BME280;16191;49.548;8.658;2023-04-23T04:41:58;99852.81;;;11.61;100.00
29121;BME280;16191;49.548;8.658;2023-04-23T04:44:25;99856.91;;;11.67;100.00
29121;BME280;16191;49.548;8.658;2023-04-23T04:46:51;99850.06;;;11.64;100.00
29121;BME280;16191;49.548;8.658;2023-04-23T04:49:19;99850.97;;;11.63;100.00
29121;BME280;16191;49.548;8.658;2023-04-23T04:51:47;99854.22;;;11.68;100.00
29121;BME280;16191;49.548;8.658;2023-04-23T04:54:14;99849.28;;;11.62;100.00
29121;BME280;16191;49.548;8.658;2023-04-23T04:56:40;99845.69;;;11.65;100.00
29121;BME280;16191;49.548;8.658;2023-04-23T04:59:09;99847.28;;;11.67;100.00
29121;BME280;16191;49.548;8.658;2023-04-23T05:01:36;99848.78;;;11.72;100.00
29121;BME280;16191;49.548;8.658;2023-04-23T05:04:03;99846.03;;;11.75;100.00
29121;BME280;16191;49.548;8.658;2023-04-23T05:06:30;99845.13;;;11.58;100.00
29121;BME280;16191;49.548;8.658;2023-04-23T05:08:58;99851.22;;;11.59;100.00
29121;BME280;16191;49.548;8.658;2023-04-23T05:11:25;99854.34;;;11.65;100.00
29121;BME280;16191;49.548;8.658;2023-04-23T05:13:51;99853.66;;;11.62;100.00
29121;BME280;16191;49.548;8.658;2023-04-23T05:16:18;99850.06;;;11.64;100.00
29121;BME280;16191;49.548;8.658;2023-04-23T05:18:44;99856.63;;;11.72;100.00
29121;BME280;16191;49.548;8.658;2023-04-23T05:21:14;99854.78;;;11.74;100.00
29121;BME280;16191;49.548;8.658;2023-04-23T05:23:41;99865.31;;;11.72;100.00
29121;BME280;16191;49.548;8.658;2023-04-23T05:26:07;99855.50;;;11.77;100.00
29121;BME280;16191;49.548;8.658;2023-04-23T05:28:34;99850.56;;;11.71;100.00
29121;BME280;16191;49.548;8.658;2023-04-23T05:31:00;99852.19;;;11.74;100.00
29121;BME280;16191;49.548;8.658;2023-04-23T05:33:27;99847.72;;;11.76;100.00
29121;BME280;16191;49.548;8.658;2023-04-23T05:36:04;99851.91;;;11.80;100.00
29121;BME280;16191;49.548;8.658;2023-04-23T05:38:31;99842.13;;;11.83;100.00
29121;BME280;16191;49.548;8.658;2023-04-23T05:40:58;99844.81;;;11.82;100.00
29121;BME280;16191;49.548;8.658;2023-04-23T05:43:25;99855.13;;;11.85;100.00
29121;BME280;16191;49.548;8.658;2023-04-23T05:45:51;99841.38;;;11.81;100.00
29121;BME280;16191;49.548;8.658;2023-04-23T05:48:18;99852.50;;;11.85;100.00
29121;BME280;16191;49.548;8.658;2023-04-23T05:50:44;99843.06;;;11.82;100.00
29121;BME280;16191;49.548;8.658;2023-04-23T05:53:11;99845.91;;;11.78;100.00
29121;BME280;16191;49.548;8.658;2023-04-23T05:55:38;99847.13;;;11.88;100.00
29121;BME280;16191;49.548;8.658;2023-04-23T05:58:04;99841.97;;;11.86;100.00
29121;BME280;16191;49.548;8.658;2023-04-23T06:00:31;99839.22;;;11.89;100.00
29121;BME280;16191;49.548;8.658;2023-04-23T06:02:58;99835.25;;;11.98;100.00
29121;BME280;16191;49.548;8.658;2023-04-23T06:05:25;99836.47;;;12.08;100.00
29121;BME280;16191;49.548;8.658;2023-04-23T06:07:52;99840.84;;;12.08;100.00
29121;BME280;16191;49.548;8.658;2023-04-23T06:10:19;99841.59;;;12.10;100.00
29121;BME280;16191;49.548;8.658;2023-04-23T06:12:45;99838.31;;;12.06;100.00
29121;BME280;16191;49.548;8.658;2023-04-23T06:15:12;99839.91;;;12.09;100.00
29121;BME280;16191;49.548;8.658;2023-04-23T06:17:39;99840.31;;;12.17;100.00
29121;BME280;16191;49.548;8.658;2023-04-23T06:20:06;99847.69;;;12.26;100.00
29121;BME280;16191;49.548;8.658;2023-04-23T06:22:34;99842.91;;;12.34;100.00
29121;BME280;16191;49.548;8.658;2023-04-23T06:25:00;99841.88;;;12.36;100.00
29121;BME280;16191;49.548;8.658;2023-04-23T06:27:27;99849.91;;;12.33;100.00
29121;BME280;16191;49.548;8.658;2023-04-23T06:29:59;99846.16;;;12.38;100.00
29121;BME280;16191;49.548;8.658;2023-04-23T06:32:26;99837.75;;;12.32;100.00
29121;BME280;16191;49.548;8.658;2023-04-23T06:34:52;99826.38;;;12.33;100.00
29121;BME280;16191;49.548;8.658;2023-04-23T06:37:27;99834.47;;;12.29;100.00
29121;BME280;16191;49.548;8.658;2023-04-23T06:39:57;99827.53;;;12.28;100.00
29121;BME280;16191;49.548;8.658;2023-04-23T06:42:23;99822.91;;;12.33;100.00
29121;BME280;16191;49.548;8.658;2023-04-23T06:45:15;99811.66;;;12.31;100.00
29121;BME280;16191;49.548;8.658;2023-04-23T06:47:41;99814.38;;;12.29;100.00
29121;BME280;16191;49.548;8.658;2023-04-23T06:50:08;99823.31;;;12.41;100.00
29121;BME280;16191;49.548;8.658;2023-04-23T06:52:34;99810.97;;;12.43;100.00
29121;BME280;16191;49.548;8.658;2023-04-23T06:55:01;99808.84;;;12.65;100.00
29121;BME280;16191;49.548;8.658;2023-04-23T06:57:28;99810.97;;;12.59;100.00
29121;BME280;16191;49.548;8.658;2023-04-23T06:59:54;99806.59;;;12.75;100.00
29121;BME280;16191;49.548;8.658;2023-04-23T07:02:24;99800.03;;;12.98;100.00
29121;BME280;16191;49.548;8.658;2023-04-23T07:04:51;99791.50;;;12.94;100.00
29121;BME280;16191;49.548;8.658;2023-04-23T07:07:18;99792.28;;;13.11;100.00
29121;BME280;16191;49.548;8.658;2023-04-23T07:09:44;99786.47;;;13.05;100.00
29121;BME280;16191;49.548;8.658;2023-04-23T07:12:11;99789.25;;;13.02;100.00
29121;BME280;16191;49.548;8.658;2023-04-23T07:14:37;99786.13;;;13.12;100.00
29121;BME280;16191;49.548;8.658;2023-04-23T07:17:04;99785.81;;;13.18;100.00
29121;BME280;16191;49.548;8.658;2023-04-23T07:19:31;99780.84;;;13.27;100.00
29121;BME280;16191;49.548;8.658;2023-04-23T07:21:57;99786.22;;;13.40;100.00
29121;BME280;16191;49.548;8.658;2023-04-23T07:24:24;99783.59;;;13.40;100.00
29121;BME280;16191;49.548;8.658;2023-04-23T07:26:52;99780.69;;;13.45;100.00
29121;BME280;16191;49.548;8.658;2023-04-23T07:29:18;99777.88;;;13.48;100.00
29121;BME280;16191;49.548;8.658;2023-04-23T07:31:45;99777.28;;;13.28;100.00
29121;BME280;16191;49.548;8.658;2023-04-23T07:34:12;99782.53;;;13.43;100.00
29121;BME280;16191;49.548;8.658;2023-04-23T07:36:39;99770.44;;;13.26;100.00
29121;BME280;16191;49.548;8.658;2023-04-23T07:42:01;99772.53;;;13.49;100.00
29121;BME280;16191;49.548;8.658;2023-04-23T07:44:27;99757.28;;;13.70;100.00
29121;BME280;16191;49.548;8.658;2023-04-23T07:46:54;99762.44;;;14.00;100.00
29121;BME280;16191;49.548;8.658;2023-04-23T07:49:21;99762.53;;;13.98;100.00
29121;BME280;16191;49.548;8.658;2023-04-23T07:51:47;99753.88;;;14.11;100.00
29121;BME280;16191;49.548;8.658;2023-04-23T07:54:14;99753.75;;;14.26;100.00
29121;BME280;16191;49.548;8.658;2023-04-23T07:56:41;99750.72;;;14.32;100.00
29121;BME280;16191;49.548;8.658;2023-04-23T07:59:08;99750.63;;;14.48;100.00
29121;BME280;16191;49.548;8.658;2023-04-23T08:01:35;99744.09;;;14.81;100.00
29121;BME280;16191;49.548;8.658;2023-04-23T08:04:02;99750.72;;;14.32;100.00
29121;BME280;16191;49.548;8.658;2023-04-23T08:06:29;99749.78;;;14.33;100.00
29121;BME280;16191;49.548;8.658;2023-04-23T08:08:56;99745.25;;;14.23;100.00
29121;BME280;16191;49.548;8.658;2023-04-23T08:11:23;99749.94;;;14.18;100.00
29121;BME280;16191;49.548;8.658;2023-04-23T08:13:49;99753.50;;;14.17;100.00
29121;BME280;16191;49.548;8.658;2023-04-23T08:16:16;99748.41;;;14.28;100.00
29121;BME280;16191;49.548;8.658;2023-04-23T08:18:44;99736.34;;;14.52;100.00
29121;BME280;16191;49.548;8.658;2023-04-23T08:21:31;99739.88;;;14.78;100.00
29121;BME280;16191;49.548;8.658;2023-04-23T08:23:58;99734.03;;;14.87;100.00
29121;BME280;16191;49.548;8.658;2023-04-23T08:26:24;99726.59;;;15.06;100.00
29121;BME280;16191;49.548;8.658;2023-04-23T08:28:51;99733.34;;;15.11;100.00
29121;BME280;16191;49.548;8.658;2023-04-23T08:31:18;99728.50;;;15.17;100.00
29121;BME280;16191;49.548;8.658;2023-04-23T08:33:52;99716.53;;;15.26;100.00
29121;BME280;16191;49.548;8.658;2023-04-23T08:36:19;99718.94;;;15.29;100.00
29121;BME280;16191;49.548;8.658;2023-04-23T08:38:45;99722.28;;;15.43;100.00
29121;BME280;16191;49.548;8.658;2023-04-23T08:41:13;99718.41;;;15.49;100.00
29121;BME280;16191;49.548;8.658;2023-04-23T08:43:45;99715.44;;;15.16;100.00
29121;BME280;16191;49.548;8.658;2023-04-23T08:46:13;99718.91;;;15.03;100.00
29121;BME280;16191;49.548;8.658;2023-04-23T08:48:43;99718.81;;;15.18;100.00
29121;BME280;16191;49.548;8.658;2023-04-23T08:51:12;99707.38;;;15.06;100.00
29121;BME280;16191;49.548;8.658;2023-04-23T08:53:43;99707.19;;;15.34;100.00
29121;BME280;16191;49.548;8.658;2023-04-23T08:56:12;99708.97;;;15.34;100.00
29121;BME280;16191;49.548;8.658;2023-04-23T08:58:40;99709.91;;;15.07;100.00
29121;BME280;16191;49.548;8.658;2023-04-23T09:01:07;99715.56;;;15.39;100.00
29121;BME280;16191;49.548;8.658;2023-04-23T09:03:35;99704.22;;;15.77;100.00
29121;BME280;16191;49.548;8.658;2023-04-23T09:06:02;99714.16;;;15.97;100.00
29121;BME280;16191;49.548;8.658;2023-04-23T09:08:31;99697.25;;;16.13;100.00
29121;BME280;16191;49.548;8.658;2023-04-23T09:10:59;99699.00;;;16.01;100.00
29121;BME280;16191;49.548;8.658;2023-04-23T09:13:29;99695.63;;;16.46;100.00
29121;BME280;16191;49.548;8.658;2023-04-23T09:15:56;99687.13;;;16.67;100.00
29121;BME280;16191;49.548;8.658;2023-04-23T09:18:23;99689.50;;;16.70;100.00
29121;BME280;16191;49.548;8.658;2023-04-23T09:20:51;99682.34;;;16.72;100.00
29121;BME280;16191;49.548;8.658;2023-04-23T09:23:20;99681.09;;;16.89;100.00
29121;BME280;16191;49.548;8.658;2023-04-23T09:25:47;99684.13;;;17.06;100.00
29121;BME280;16191;49.548;8.658;2023-04-23T09:28:14;99677.53;;;17.34;100.00
29121;BME280;16191;49.548;8.658;2023-04-23T09:30:44;99680.03;;;17.02;100.00
29121;BME280;16191;49.548;8.658;2023-04-23T09:33:12;99671.78;;;17.40;98.38
29121;BME280;16191;49.548;8.658;2023-04-23T09:35:39;99681.47;;;17.06;92.15
29121;BME280;16191;49.548;8.658;2023-04-23T09:38:08;99674.53;;;17.17;93.76
29121;BME280;16191;49.548;8.658;2023-04-23T09:40:36;99661.94;;;17.76;93.09
29121;BME280;16191;49.548;8.658;2023-04-23T09:43:04;99656.09;;;17.72;91.39
29121;BME280;16191;49.548;8.658;2023-04-23T09:45:32;99652.25;;;17.76;90.94
29121;BME280;16191;49.548;8.658;2023-04-23T09:48:00;99646.16;;;17.54;91.45
29121;BME280;16191;49.548;8.658;2023-04-23T09:50:31;99653.69;;;17.25;90.42
29121;BME280;16191;49.548;8.658;2023-04-23T09:52:58;99661.81;;;17.10;91.29
29121;BME280;16191;49.548;8.658;2023-04-23T09:55:29;99649.25;;;17.14;91.13
29121;BME280;16191;49.548;8.658;2023-04-23T09:57:56;99643.13;;;17.13;96.19
29121;BME280;16191;49.548;8.658;2023-04-23T10:00:23;99643.94;;;17.92;90.02
29121;BME280;16191;49.548;8.658;2023-04-23T10:02:54;99635.19;;;17.92;87.97
29121;BME280;16191;49.548;8.658;2023-04-23T10:05:22;99636.19;;;17.35;90.46
29121;BME280;16191;49.548;8.658;2023-04-23T10:07:59;99647.91;;;17.75;86.85
29121;BME280;16191;49.548;8.658;2023-04-23T10:10:26;99633.69;;;17.67;86.08
29121;BME280;16191;49.548;8.658;2023-04-23T10:12:53;99635.94;;;17.49;87.12
29121;BME280;16191;49.548;8.658;2023-04-23T10:15:25;99631.47;;;17.83;88.74
29121;BME280;16191;49.548;8.658;2023-04-23T10:17:53;99628.72;;;17.96;84.03
29121;BME280;16191;49.548;8.658;2023-04-23T10:20:22;99625.22;;;18.27;82.24
29121;BME280;16191;49.548;8.658;2023-04-23T10:22:49;99632.59;;;18.44;82.90
29121;BME280;16191;49.548;8.658;2023-04-23T10:25:18;99616.84;;;18.43;81.93
29121;BME280;16191;49.548;8.658;2023-04-23T10:27:47;99625.25;;;18.59;77.32
29121;BME280;16191;49.548;8.658;2023-04-23T10:30:20;99621.41;;;18.20;80.07
29121;BME280;16191;49.548;8.658;2023-04-23T10:32:48;99620.34;;;18.75;80.24
29121;BME280;16191;49.548;8.658;2023-04-23T10:35:15;99616.06;;;18.10;78.45
29121;BME280;16191;49.548;8.658;2023-04-23T10:37:43;99612.72;;;18.29;78.26
29121;BME280;16191;49.548;8.658;2023-04-23T10:40:13;99619.63;;;18.73;76.21
29121;BME280;16191;49.548;8.658;2023-04-23T10:42:42;99613.22;;;18.97;73.72
29121;BME280;16191;49.548;8.658;2023-04-23T10:45:15;99604.19;;;18.58;70.89
29121;BME280;16191;49.548;8.658;2023-04-23T10:47:52;99599.47;;;18.40;73.00
29121;BME280;16191;49.548;8.658;2023-04-23T10:50:25;99591.75;;;18.48;71.88
29121;BME280;16191;49.548;8.658;2023-04-23T10:52:52;99585.44;;;19.12;75.12
29121;BME280;16191;49.548;8.658;2023-04-23T10:55:22;99586.19;;;18.93;69.33
29121;BME280;16191;49.548;8.658;2023-04-23T10:58:02;99587.94;;;19.04;70.57
29121;BME280;16191;49.548;8.658;2023-04-23T11:00:47;99579.75;;;19.47;65.10
29121;BME280;16191;49.548;8.658;2023-04-23T11:03:39;99573.13;;;19.72;61.28
29121;BME280;16191;49.548;8.658;2023-04-23T11:06:18;99568.94;;;20.66;58.72
29121;BME280;16191;49.548;8.658;2023-04-23T11:08:50;99573.84;;;19.34;60.88
29121;BME280;16191;49.548;8.658;2023-04-23T11:11:39;99566.72;;;19.94;60.07
29121;BME280;16191;49.548;8.658;2023-04-23T11:14:11;99565.72;;;19.56;61.35
29121;BME280;16191;49.548;8.658;2023-04-23T11:16:39;99559.19;;;19.79;61.27
29121;BME280;16191;49.548;8.658;2023-04-23T11:19:10;99558.09;;;20.01;59.05
29121;BME280;16191;49.548;8.658;2023-04-23T11:22:00;99560.91;;;19.40;58.63
29121;BME280;16191;49.548;8.658;2023-04-23T11:24:35;99560.81;;;19.11;59.24
29121;BME280;16191;49.548;8.658;2023-04-23T11:27:07;99545.97;;;19.79;60.65
29121;BME280;16191;49.548;8.658;2023-04-23T11:29:35;99546.81;;;19.80;60.92
29121;BME280;16191;49.548;8.658;2023-04-23T11:32:02;99536.72;;;19.55;59.07
29121;BME280;16191;49.548;8.658;2023-04-23T11:34:31;99545.28;;;20.26;62.67
29121;BME280;16191;49.548;8.658;2023-04-23T11:36:58;99527.13;;;19.73;61.55
29121;BME280;16191;49.548;8.658;2023-04-23T11:39:26;99526.88;;;19.95;57.86
29121;BME280;16191;49.548;8.658;2023-04-23T11:41:53;99518.63;;;20.17;57.38
29121;BME280;16191;49.548;8.658;2023-04-23T11:44:20;99518.63;;;19.50;56.71
29121;BME280;16191;49.548;8.658;2023-04-23T11:46:48;99513.94;;;20.77;56.58
29121;BME280;16191;49.548;8.658;2023-04-23T11:49:18;99516.28;;;20.80;54.13
29121;BME280;16191;49.548;8.658;2023-04-23T11:51:45;99507.66;;;21.78;50.56
29121;BME280;16191;49.548;8.658;2023-04-23T11:54:12;99513.91;;;19.82;51.61
29121;BME280;16191;49.548;8.658;2023-04-23T11:56:40;99509.00;;;20.82;50.82
29121;BME280;16191;49.548;8.658;2023-04-23T11:59:07;99520.84;;;20.51;50.01
29121;BME280;16191;49.548;8.658;2023-04-23T12:01:46;99506.13;;;21.03;51.44
29121;BME280;16191;49.548;8.658;2023-04-23T12:04:15;99492.09;;;20.93;50.27
29121;BME280;16191;49.548;8.658;2023-04-23T12:06:44;99478.78;;;21.03;49.05
29121;BME280;16191;49.548;8.658;2023-04-23T12:09:12;99472.31;;;21.60;49.11
29121;BME280;16191;49.548;8.658;2023-04-23T12:11:41;99481.38;;;22.11;49.68
29121;BME280;16191;49.548;8.658;2023-04-23T12:14:09;99473.78;;;21.45;47.52
29121;BME280;16191;49.548;8.658;2023-04-23T12:19:08;99452.19;;;21.75;45.09
29121;BME280;16191;49.548;8.658;2023-04-23T12:22:03;99446.09;;;21.65;45.77
29121;BME280;16191;49.548;8.658;2023-04-23T12:24:44;99454.41;;;20.62;44.92
29121;BME280;16191;49.548;8.658;2023-04-23T12:27:13;99436.66;;;21.63;44.09
29121;BME280;16191;49.548;8.658;2023-04-23T12:29:41;99444.59;;;21.80;43.02
29121;BME280;16191;49.548;8.658;2023-04-23T12:32:10;99445.13;;;22.02;45.24
29121;BME280;16191;49.548;8.658;2023-04-23T12:34:36;99437.13;;;22.19;43.40
29121;BME280;16191;49.548;8.658;2023-04-23T12:37:05;99428.16;;;22.80;42.93
29121;BME280;16191;49.548;8.658;2023-04-23T12:39:33;99433.28;;;23.16;42.06
29121;BME280;16191;49.548;8.658;2023-04-23T12:42:05;99409.88;;;23.92;41.42
29121;BME280;16191;49.548;8.658;2023-04-23T12:44:34;99419.91;;;24.62;40.81
29121;BME280;16191;49.548;8.658;2023-04-23T12:47:06;99413.75;;;22.99;41.54
29121;BME280;16191;49.548;8.658;2023-04-23T12:49:34;99412.69;;;23.83;40.90
29121;BME280;16191;49.548;8.658;2023-04-23T12:52:03;99407.31;;;24.40;39.62
29121;BME280;16191;49.548;8.658;2023-04-23T12:54:31;99404.41;;;23.78;38.92
29121;BME280;16191;49.548;8.658;2023-04-23T12:56:59;99407.78;;;23.05;40.31
29121;BME280;16191;49.548;8.658;2023-04-23T12:59:30;99394.53;;;23.30;39.46
29121;BME280;16191;49.548;8.658;2023-04-23T13:01:57;99413.13;;;21.50;42.45
29121;BME280;16191;49.548;8.658;2023-04-23T13:04:33;99406.81;;;21.69;43.02
29121;BME280;16191;49.548;8.658;2023-04-23T13:07:00;99408.44;;;21.87;43.35